NY32 weather

Cayuga Medical Center Heliport
Ithaca, New York, United States

Public forecast

Using degrees Fahrenheit for public forecast. Weather courtesy of forecast.io.

Closest aviation weather report (METAR) to Cayuga Medical Center Heliport

Closest report is Ithaca Tompkins Regional Airport, 3.7 nm (6.8 km) ENE. Retrieved 2020/08/06 05:56 UTC (46 minutes ago):

KITH 060556Z AUTO 00000KT 10SM SCT055 14/14 A3014 RMK AO2 SLP202 T01440139 10206 20144 51006

Closest aviation forecast (TAF) to Cayuga Medical Center Heliport

Closest forecast is Ithaca Tompkins Regional Airport, 3.7 nm (6.8 km) ENE. Retrieved 2020/08/06 06:42 UTC (0 seconds ago):

TAF KITH 060538Z 0606/0706 34003KT P6SM SCT050 FM070100 08003KT P6SM SCT100